Time;durP1;ratioP1;P1;durP2;ratioP2;P2;SDS_P1;SDS_P2;PMS_P1;PMS_P2;Temp;Humidity;BMP_temperature;BMP_pressure;BME280_temperature;BME280_humidity;BME280_pressure;Samples;Min_cycle;Max_cycle;Signal;HPM_P1;HPM_P2
2021/10/24 00:01:33;;;;;;;;;;;7.90;99.90;;;;;;1864621;75;20185;-72
2021/10/24 00:04:00;;;;;;;;;;;8.00;99.90;;;;;;1865181;75;20219;-71
2021/10/24 00:06:27;;;;;;;;;;;8.00;99.90;;;;;;1866771;75;20187;-70
2021/10/24 00:08:54;;;;;;;;;;;7.90;99.90;;;;;;1869359;75;20212;-71
2021/10/24 00:11:21;;;;;;;;;;;7.90;99.90;;;;;;1873677;75;20166;-72
2021/10/24 00:13:48;;;;;;;;;;;7.90;99.90;;;;;;1871057;75;20169;-71
2021/10/24 00:16:14;;;;;;;;;;;7.90;99.90;;;;;;1871450;75;20255;-71
2021/10/24 00:18:41;;;;;;;;;;;7.90;99.90;;;;;;1869283;75;20240;-72
2021/10/24 00:21:08;;;;;;;;;;;7.80;99.90;;;;;;1868369;75;20224;-71
2021/10/24 00:23:35;;;;;;;;;;;7.80;99.90;;;;;;1874168;74;20178;-71
2021/10/24 00:26:02;;;;;;;;;;;7.80;99.90;;;;;;1877811;74;20136;-71
2021/10/24 00:28:28;;;;;;;;;;;7.80;99.90;;;;;;1876134;74;20171;-71
2021/10/24 00:30:55;;;;;;;;;;;7.90;99.90;;;;;;1880148;74;20444;-72
2021/10/24 00:33:22;;;;;;;;;;;7.80;99.90;;;;;;1880891;74;20115;-71
2021/10/24 00:35:49;;;;;;;;;;;7.80;99.90;;;;;;1876169;74;20180;-71
2021/10/24 00:38:16;;;;;;;;;;;7.80;99.90;;;;;;1878806;74;20470;-70
2021/10/24 00:40:43;;;;;;;;;;;7.90;99.90;;;;;;1879382;74;20189;-71
2021/10/24 00:43:10;;;;;;;;;;;7.80;99.90;;;;;;1877728;74;20247;-71
2021/10/24 00:45:37;;;;;;;;;;;7.80;99.90;;;;;;1882028;74;20210;-71
2021/10/24 00:48:04;;;;;;;;;;;7.80;99.90;;;;;;1882104;74;20183;-71
2021/10/24 00:50:33;;;;;;;;;;;7.80;99.90;;;;;;1878756;74;20206;-71
2021/10/24 00:52:59;;;;;;;;;;;7.80;99.90;;;;;;1880788;74;20150;-71
2021/10/24 00:55:26;;;;;;;;;;;7.80;99.90;;;;;;1875392;74;20165;-69
2021/10/24 00:57:54;;;;;;;;;;;7.80;99.90;;;;;;1878575;74;20402;-71
2021/10/24 01:00:21;;;;;;;;;;;7.70;99.90;;;;;;1879073;74;20110;-71
2021/10/24 01:02:48;;;;;;;;;;;7.80;99.90;;;;;;1878487;74;20177;-71
2021/10/24 01:05:16;;;;;;;;;;;7.80;99.90;;;;;;1877921;74;20189;-70
2021/10/24 01:07:44;;;;;;;;;;;7.70;99.90;;;;;;1880235;74;20127;-71
2021/10/24 01:10:15;;;;;;;;;;;7.70;99.90;;;;;;1876507;74;20374;-71
2021/10/24 01:12:40;;;;;;;;;;;7.70;99.90;;;;;;1880085;74;20196;-71
2021/10/24 01:15:06;;;;;;;;;;;7.70;99.90;;;;;;1877556;74;20195;-71
2021/10/24 01:17:33;;;;;;;;;;;7.80;99.90;;;;;;1874310;74;20149;-71
2021/10/24 01:20:01;;;;;;;;;;;7.70;99.90;;;;;;1874483;74;20158;-71
2021/10/24 01:22:29;;;;;;;;;;;7.60;99.90;;;;;;1876545;74;20184;-71
2021/10/24 01:24:56;;;;;;;;;;;7.70;99.90;;;;;;1881246;74;20222;-71
2021/10/24 01:27:23;;;;;;;;;;;7.60;99.90;;;;;;1877521;74;20188;-72
2021/10/24 01:29:50;;;;;;;;;;;7.60;99.90;;;;;;1878621;74;20197;-71
2021/10/24 01:32:17;;;;;;;;;;;7.70;99.90;;;;;;1880211;74;20173;-71
2021/10/24 01:34:45;;;;;;;;;;;7.70;99.90;;;;;;1879555;74;20213;-71
2021/10/24 01:37:12;;;;;;;;;;;7.70;99.90;;;;;;1879961;74;20299;-71
2021/10/24 01:39:39;;;;;;;;;;;7.60;99.90;;;;;;1880227;74;20172;-71
2021/10/24 01:42:06;;;;;;;;;;;7.60;99.90;;;;;;1881801;74;20162;-70
2021/10/24 01:44:33;;;;;;;;;;;7.80;99.90;;;;;;1881730;74;20634;-69
2021/10/24 01:46:59;;;;;;;;;;;7.70;99.90;;;;;;1880866;74;20168;-71
2021/10/24 01:49:26;;;;;;;;;;;7.70;99.90;;;;;;1880629;74;20283;-71
2021/10/24 01:51:53;;;;;;;;;;;7.70;99.90;;;;;;1876242;74;20513;-70
2021/10/24 01:54:20;;;;;;;;;;;7.60;99.90;;;;;;1880412;74;20199;-71
2021/10/24 01:56:47;;;;;;;;;;;7.60;99.90;;;;;;1878725;74;20441;-70
2021/10/24 01:59:13;;;;;;;;;;;7.60;99.90;;;;;;1878786;74;20169;-71
2021/10/24 02:01:42;;;;;;;;;;;7.70;99.90;;;;;;1878476;74;20149;-73
2021/10/24 02:04:09;;;;;;;;;;;7.60;99.90;;;;;;1882186;74;20255;-73
2021/10/24 02:06:36;;;;;;;;;;;7.50;99.90;;;;;;1880514;74;20163;-71
2021/10/24 02:09:02;;;;;;;;;;;7.40;99.90;;;;;;1879840;74;20174;-72
2021/10/24 02:11:29;;;;;;;;;;;7.40;99.90;;;;;;1880040;74;20158;-71
2021/10/24 02:13:56;;;;;;;;;;;7.50;99.90;;;;;;1877395;74;20218;-73
2021/10/24 02:16:23;;;;;;;;;;;7.50;99.90;;;;;;1877604;74;20187;-71
2021/10/24 02:18:50;;;;;;;;;;;7.50;99.90;;;;;;1878444;74;20184;-71
2021/10/24 02:21:17;;;;;;;;;;;7.40;99.90;;;;;;1878023;74;20116;-71
2021/10/24 02:23:44;;;;;;;;;;;7.40;99.90;;;;;;1881479;74;20232;-71
2021/10/24 02:26:11;;;;;;;;;;;7.40;99.90;;;;;;1878553;74;20208;-73
2021/10/24 02:28:37;;;;;;;;;;;7.50;99.90;;;;;;1881089;74;20160;-73
2021/10/24 02:31:04;;;;;;;;;;;7.50;99.90;;;;;;1881621;74;20454;-71
2021/10/24 02:33:31;;;;;;;;;;;7.40;99.90;;;;;;1872883;74;20125;-71
2021/10/24 02:35:58;;;;;;;;;;;7.40;99.90;;;;;;1874503;74;20209;-71
2021/10/24 02:38:24;;;;;;;;;;;7.40;99.90;;;;;;1874826;74;20124;-71
2021/10/24 02:40:51;;;;;;;;;;;7.50;99.90;;;;;;1877404;76;20159;-70
2021/10/24 02:43:18;;;;;;;;;;;7.40;99.90;;;;;;1877221;76;20160;-73
2021/10/24 02:45:45;;;;;;;;;;;7.30;99.90;;;;;;1878025;74;20155;-73
2021/10/24 02:48:12;;;;;;;;;;;7.40;99.90;;;;;;1878415;74;20212;-71
2021/10/24 02:50:39;;;;;;;;;;;7.40;99.90;;;;;;1878390;74;20199;-71
2021/10/24 02:53:06;;;;;;;;;;;7.40;99.90;;;;;;1879414;74;20258;-74
2021/10/24 02:55:33;;;;;;;;;;;7.30;99.90;;;;;;1877477;74;20128;-73
2021/10/24 02:58:00;;;;;;;;;;;7.30;99.90;;;;;;1877454;74;20581;-71
2021/10/24 03:00:26;;;;;;;;;;;7.30;99.90;;;;;;1883199;74;20182;-73
2021/10/24 03:02:53;;;;;;;;;;;7.30;99.90;;;;;;1879088;74;20123;-73
2021/10/24 03:05:20;;;;;;;;;;;7.20;99.90;;;;;;1877763;74;20219;-73
2021/10/24 03:07:47;;;;;;;;;;;7.10;99.90;;;;;;1877472;74;20196;-71
2021/10/24 03:10:14;;;;;;;;;;;7.10;99.90;;;;;;1881885;74;20179;-74
2021/10/24 03:12:40;;;;;;;;;;;7.20;99.90;;;;;;1879509;74;20182;-73
2021/10/24 03:15:07;;;;;;;;;;;7.20;99.90;;;;;;1878991;74;20122;-71
2021/10/24 03:17:34;;;;;;;;;;;7.20;99.90;;;;;;1878313;74;20234;-73
2021/10/24 03:20:01;;;;;;;;;;;7.10;99.90;;;;;;1878872;74;20223;-73
2021/10/24 03:22:28;;;;;;;;;;;7.10;99.90;;;;;;1879882;74;20103;-72
2021/10/24 03:24:55;;;;;;;;;;;7.00;99.90;;;;;;1876365;74;20579;-72
2021/10/24 03:27:21;;;;;;;;;;;6.90;99.90;;;;;;1873921;74;20167;-74
2021/10/24 03:29:48;;;;;;;;;;;6.90;99.90;;;;;;1878445;74;20568;-73
2021/10/24 03:32:15;;;;;;;;;;;6.90;99.90;;;;;;1876131;76;20181;-71
2021/10/24 03:34:43;;;;;;;;;;;6.80;99.90;;;;;;1877627;74;20109;-73
2021/10/24 03:37:10;;;;;;;;;;;6.80;99.90;;;;;;1877589;74;20120;-73
2021/10/24 03:39:36;;;;;;;;;;;6.80;99.90;;;;;;1876373;76;20135;-73
2021/10/24 03:42:03;;;;;;;;;;;6.80;99.90;;;;;;1879611;74;20165;-73
2021/10/24 03:44:30;;;;;;;;;;;6.90;99.90;;;;;;1874253;74;20176;-72
2021/10/24 03:46:57;;;;;;;;;;;6.80;99.90;;;;;;1877026;74;20180;-73
2021/10/24 03:49:24;;;;;;;;;;;6.80;99.90;;;;;;1875290;74;20454;-72
2021/10/24 03:51:51;;;;;;;;;;;6.90;99.90;;;;;;1880354;74;20251;-72
2021/10/24 03:54:18;;;;;;;;;;;6.80;99.90;;;;;;1881553;74;20255;-73
2021/10/24 03:56:44;;;;;;;;;;;6.90;99.90;;;;;;1879858;74;20425;-73
2021/10/24 03:59:11;;;;;;;;;;;6.90;99.90;;;;;;1879551;74;20179;-71
2021/10/24 04:01:38;;;;;;;;;;;6.90;99.90;;;;;;1879709;74;20164;-73
2021/10/24 04:04:05;;;;;;;;;;;7.00;99.90;;;;;;1879239;74;20137;-73
2021/10/24 04:06:33;;;;;;;;;;;6.90;99.90;;;;;;1879326;74;20253;-73
2021/10/24 04:09:00;;;;;;;;;;;6.80;99.90;;;;;;1884104;74;20264;-73
2021/10/24 04:11:27;;;;;;;;;;;6.80;99.90;;;;;;1881488;74;20369;-73
2021/10/24 04:13:53;;;;;;;;;;;6.70;99.90;;;;;;1877412;74;20173;-72
2021/10/24 04:16:20;;;;;;;;;;;6.70;99.90;;;;;;1880632;74;20190;-73
2021/10/24 04:18:47;;;;;;;;;;;6.70;99.90;;;;;;1880412;74;20128;-73
2021/10/24 04:21:14;;;;;;;;;;;6.70;99.90;;;;;;1879267;74;20223;-73
2021/10/24 04:23:41;;;;;;;;;;;6.60;99.90;;;;;;1876314;74;20229;-73
2021/10/24 04:26:08;;;;;;;;;;;6.60;99.90;;;;;;1860204;75;20149;-73
2021/10/24 04:28:34;;;;;;;;;;;6.60;99.90;;;;;;1858879;75;20191;-73
2021/10/24 04:31:01;;;;;;;;;;;6.60;99.90;;;;;;1860533;75;20204;-73
2021/10/24 04:33:28;;;;;;;;;;;6.60;99.90;;;;;;1854687;75;20596;-73
2021/10/24 04:35:55;;;;;;;;;;;6.60;99.90;;;;;;1855868;75;20211;-73
2021/10/24 04:38:22;;;;;;;;;;;6.50;99.90;;;;;;1859563;75;20129;-73
2021/10/24 04:40:48;;;;;;;;;;;6.60;99.90;;;;;;1857233;75;20213;-73
2021/10/24 04:43:16;;;;;;;;;;;6.70;99.90;;;;;;1860163;75;20128;-71
2021/10/24 04:45:43;;;;;;;;;;;6.70;99.90;;;;;;1862795;75;20197;-73
2021/10/24 04:48:10;;;;;;;;;;;6.70;99.90;;;;;;1859451;75;20119;-74
2021/10/24 04:50:36;;;;;;;;;;;6.60;99.90;;;;;;1864313;75;20197;-73
2021/10/24 04:53:07;;;;;;;;;;;6.70;99.90;;;;;;1862212;75;20196;-74
2021/10/24 04:55:34;;;;;;;;;;;6.60;99.90;;;;;;1859633;75;20204;-73
2021/10/24 04:58:02;;;;;;;;;;;6.60;99.90;;;;;;1859433;75;20211;-74
2021/10/24 05:00:28;;;;;;;;;;;6.60;99.90;;;;;;1858662;75;20158;-73
2021/10/24 05:02:55;;;;;;;;;;;6.60;99.90;;;;;;1863074;75;20168;-73
2021/10/24 05:05:22;;;;;;;;;;;6.60;99.90;;;;;;1858444;75;20123;-73
2021/10/24 05:07:49;;;;;;;;;;;6.70;99.90;;;;;;1862086;75;20178;-73
2021/10/24 05:10:16;;;;;;;;;;;6.50;99.90;;;;;;1862727;75;20170;-73
2021/10/24 05:12:43;;;;;;;;;;;6.50;99.90;;;;;;1859913;75;20407;-73
2021/10/24 05:15:10;;;;;;;;;;;6.50;99.90;;;;;;1864984;75;20908;-73
2021/10/24 05:17:37;;;;;;;;;;;6.60;99.90;;;;;;1860240;75;20605;-72
2021/10/24 05:20:05;;;;;;;;;;;6.50;99.90;;;;;;1863240;75;20173;-73
2021/10/24 05:22:32;;;;;;;;;;;6.60;99.90;;;;;;1861013;75;20215;-72
2021/10/24 05:24:59;;;;;;;;;;;6.50;99.90;;;;;;1859656;75;20164;-73
2021/10/24 05:27:25;;;;;;;;;;;6.50;99.90;;;;;;1860970;75;20477;-73
2021/10/24 05:29:52;;;;;;;;;;;6.40;99.90;;;;;;1862896;75;20442;-73
2021/10/24 05:32:19;;;;;;;;;;;6.50;99.90;;;;;;1859587;75;20172;-73
2021/10/24 05:34:46;;;;;;;;;;;6.50;99.90;;;;;;1860898;75;20569;-73
2021/10/24 05:37:13;;;;;;;;;;;6.50;99.90;;;;;;1860854;75;20122;-73
2021/10/24 05:39:39;;;;;;;;;;;6.50;99.90;;;;;;1864328;75;20177;-73
2021/10/24 05:42:06;;;;;;;;;;;6.40;99.90;;;;;;1863332;75;20487;-73
2021/10/24 05:44:33;;;;;;;;;;;6.40;99.90;;;;;;1863372;75;20656;-74
2021/10/24 05:47:00;;;;;;;;;;;6.40;99.90;;;;;;1860269;75;20164;-73
2021/10/24 05:49:27;;;;;;;;;;;6.40;99.90;;;;;;1860772;75;20543;-73
2021/10/24 05:51:53;;;;;;;;;;;6.40;99.90;;;;;;1859373;75;20121;-72
2021/10/24 05:54:20;;;;;;;;;;;6.50;99.90;;;;;;1859510;75;20170;-73
2021/10/24 05:56:47;;;;;;;;;;;6.40;99.90;;;;;;1863147;75;20405;-73
2021/10/24 05:59:14;;;;;;;;;;;6.40;99.90;;;;;;1862179;75;20215;-73
2021/10/24 06:01:41;;;;;;;;;;;6.40;99.90;;;;;;1858580;75;20172;-73
2021/10/24 06:04:08;;;;;;;;;;;6.50;99.90;;;;;;1860689;75;20116;-73
2021/10/24 06:06:34;;;;;;;;;;;6.40;99.90;;;;;;1860797;75;20185;-73
2021/10/24 06:09:01;;;;;;;;;;;6.50;99.90;;;;;;1860196;75;20122;-73
2021/10/24 06:11:34;;;;;;;;;;;6.30;99.90;;;;;;1861539;75;20456;-73
2021/10/24 06:13:57;;;;;;;;;;;6.30;99.90;;;;;;1858952;75;20232;-73
2021/10/24 06:16:24;;;;;;;;;;;6.40;99.90;;;;;;1863598;75;21081;-72
2021/10/24 06:18:51;;;;;;;;;;;6.40;99.90;;;;;;1863301;75;20247;-73
2021/10/24 06:21:18;;;;;;;;;;;6.40;99.90;;;;;;1861576;75;20115;-73
2021/10/24 06:23:44;;;;;;;;;;;6.30;99.90;;;;;;1860292;75;20229;-72
2021/10/24 06:26:11;;;;;;;;;;;6.40;99.90;;;;;;1867411;74;20181;-73
2021/10/24 06:28:38;;;;;;;;;;;6.40;99.90;;;;;;1877033;74;20476;-73
2021/10/24 06:31:05;;;;;;;;;;;6.30;99.90;;;;;;1883469;74;20219;-73
2021/10/24 06:33:32;;;;;;;;;;;6.30;99.90;;;;;;1878583;74;20144;-73
2021/10/24 06:35:59;;;;;;;;;;;6.40;99.90;;;;;;1879635;74;20719;-74
2021/10/24 06:38:25;;;;;;;;;;;6.30;99.90;;;;;;1875856;74;20211;-72
2021/10/24 06:40:52;;;;;;;;;;;6.40;99.90;;;;;;1880578;74;20115;-73
2021/10/24 06:43:19;;;;;;;;;;;6.40;99.90;;;;;;1882954;74;20402;-73
2021/10/24 06:45:46;;;;;;;;;;;6.40;99.90;;;;;;1880243;74;20229;-73
2021/10/24 06:48:13;;;;;;;;;;;6.50;99.90;;;;;;1881738;74;20153;-73
2021/10/24 06:50:40;;;;;;;;;;;6.40;99.90;;;;;;1877397;74;20216;-73
2021/10/24 06:53:07;;;;;;;;;;;6.30;99.90;;;;;;1872582;74;20124;-73
2021/10/24 06:55:34;;;;;;;;;;;6.40;99.90;;;;;;1869293;74;20223;-73
2021/10/24 06:58:00;;;;;;;;;;;6.50;99.90;;;;;;1869395;74;20505;-73
2021/10/24 07:00:28;;;;;;;;;;;6.50;99.90;;;;;;1867012;74;20217;-73
2021/10/24 07:02:55;;;;;;;;;;;6.40;99.90;;;;;;1871709;74;20097;-73
2021/10/24 07:05:22;;;;;;;;;;;6.50;99.90;;;;;;1873911;74;20183;-73
2021/10/24 07:07:50;;;;;;;;;;;6.60;99.90;;;;;;1872661;74;20181;-72
2021/10/24 07:10:17;;;;;;;;;;;6.50;99.90;;;;;;1867980;74;20225;-73
2021/10/24 07:12:50;;;;;;;;;;;6.50;99.90;;;;;;1874620;74;20233;-73
2021/10/24 07:15:13;;;;;;;;;;;6.50;99.90;;;;;;1874288;74;20135;-73
2021/10/24 07:17:40;;;;;;;;;;;6.60;99.90;;;;;;1871308;74;20182;-73
2021/10/24 07:20:07;;;;;;;;;;;6.60;99.90;;;;;;1872085;74;20411;-73
2021/10/24 07:22:34;;;;;;;;;;;6.70;99.90;;;;;;1870759;74;20190;-73
2021/10/24 07:25:02;;;;;;;;;;;6.70;99.90;;;;;;1870704;74;20128;-73
2021/10/24 07:27:29;;;;;;;;;;;6.60;99.90;;;;;;1859422;74;20177;-73
2021/10/24 07:29:55;;;;;;;;;;;6.70;99.90;;;;;;1855289;75;20223;-71
2021/10/24 07:32:23;;;;;;;;;;;6.70;99.90;;;;;;1853231;75;20188;-73
2021/10/24 07:34:50;;;;;;;;;;;6.70;99.90;;;;;;1852728;75;20219;-73
2021/10/24 07:37:16;;;;;;;;;;;6.80;99.90;;;;;;1851655;75;20214;-73
2021/10/24 07:39:43;;;;;;;;;;;6.90;99.90;;;;;;1851149;75;20157;-73
2021/10/24 07:42:10;;;;;;;;;;;7.00;99.90;;;;;;1851995;75;20268;-72
2021/10/24 07:44:38;;;;;;;;;;;7.00;99.90;;;;;;1851868;75;20180;-74
2021/10/24 07:47:04;;;;;;;;;;;7.10;99.90;;;;;;1851354;75;20173;-73
2021/10/24 07:49:32;;;;;;;;;;;7.20;99.90;;;;;;1851548;75;20214;-72
2021/10/24 07:51:58;;;;;;;;;;;7.20;99.90;;;;;;1853369;75;20201;-73
2021/10/24 07:54:26;;;;;;;;;;;7.20;99.90;;;;;;1852706;75;20216;-72
2021/10/24 07:56:53;;;;;;;;;;;7.30;99.90;;;;;;1851522;75;20173;-73
2021/10/24 07:59:22;;;;;;;;;;;7.40;99.90;;;;;;1849873;75;20250;-73
2021/10/24 08:01:49;;;;;;;;;;;7.50;99.90;;;;;;1848853;75;20213;-73
2021/10/24 08:04:17;;;;;;;;;;;7.50;99.90;;;;;;1851988;75;20113;-71
2021/10/24 08:06:44;;;;;;;;;;;7.50;99.90;;;;;;1854686;75;20179;-73
2021/10/24 08:09:11;;;;;;;;;;;7.60;99.90;;;;;;1853996;75;20162;-70
2021/10/24 08:11:39;;;;;;;;;;;7.50;99.90;;;;;;1857591;75;20137;-73
2021/10/24 08:14:07;;;;;;;;;;;7.60;99.90;;;;;;1859471;75;20176;-73
2021/10/24 08:16:35;;;;;;;;;;;7.70;99.90;;;;;;1850859;75;20196;-73
2021/10/24 08:19:02;;;;;;;;;;;7.80;99.90;;;;;;1849588;75;20223;-73
2021/10/24 08:21:30;;;;;;;;;;;7.90;99.90;;;;;;1852550;75;20176;-73
2021/10/24 08:23:57;;;;;;;;;;;7.90;99.90;;;;;;1851429;75;20422;-74
2021/10/24 08:26:24;;;;;;;;;;;8.00;99.90;;;;;;1853086;75;20478;-73
2021/10/24 08:28:51;;;;;;;;;;;8.00;99.90;;;;;;1853521;75;20239;-73
2021/10/24 08:31:24;;;;;;;;;;;8.10;99.90;;;;;;1850456;75;20206;-73
2021/10/24 08:33:47;;;;;;;;;;;8.10;99.90;;;;;;1849426;72;20432;-70
2021/10/24 08:36:14;;;;;;;;;;;8.20;99.90;;;;;;1806646;78;20267;-70
2021/10/24 08:38:43;;;;;;;;;;;8.20;99.90;;;;;;1823704;78;20164;-70
2021/10/24 08:41:10;;;;;;;;;;;8.30;99.90;;;;;;1839128;75;21095;-70
2021/10/24 08:43:38;;;;;;;;;;;8.30;99.90;;;;;;1804934;78;20229;-70
2021/10/24 08:46:05;;;;;;;;;;;8.40;99.90;;;;;;1834594;76;20212;-70
2021/10/24 08:48:34;;;;;;;;;;;8.50;99.90;;;;;;1835925;76;20204;-70
2021/10/24 08:51:02;;;;;;;;;;;8.60;99.90;;;;;;1831942;76;20290;-70
2021/10/24 08:53:30;;;;;;;;;;;8.70;99.90;;;;;;1834866;76;20222;-70
2021/10/24 08:55:58;;;;;;;;;;;8.70;99.90;;;;;;1833751;76;20195;-70
2021/10/24 08:58:25;;;;;;;;;;;8.80;99.90;;;;;;1833847;76;20447;-70
2021/10/24 09:00:52;;;;;;;;;;;8.90;99.90;;;;;;1837022;76;20265;-70
2021/10/24 09:03:19;;;;;;;;;;;8.90;99.90;;;;;;1833216;76;20441;-70
2021/10/24 09:05:47;;;;;;;;;;;9.00;99.90;;;;;;1832474;76;20121;-71
2021/10/24 09:08:15;;;;;;;;;;;9.10;99.90;;;;;;1833974;76;20831;-71
2021/10/24 09:10:46;;;;;;;;;;;9.20;99.90;;;;;;1794605;79;20266;-71
2021/10/24 09:13:14;;;;;;;;;;;9.20;99.90;;;;;;1833277;77;20208;-71
2021/10/24 09:15:49;;;;;;;;;;;9.40;99.90;;;;;;1832589;76;20221;-71
2021/10/24 09:18:17;;;;;;;;;;;9.40;99.90;;;;;;1823131;76;20393;-71
2021/10/24 09:20:44;;;;;;;;;;;9.50;99.90;;;;;;1829777;76;20137;-71
2021/10/24 09:23:12;;;;;;;;;;;9.50;99.90;;;;;;1832500;76;20206;-71
2021/10/24 09:25:56;;;;;;;;;;;9.70;99.90;;;;;;1828154;76;20286;-71
2021/10/24 09:28:24;;;;;;;;;;;9.70;99.90;;;;;;1824637;76;20223;-71
2021/10/24 09:31:02;;;;;;;;;;;9.90;99.90;;;;;;1828938;78;20184;-71
2021/10/24 09:33:42;;;;;;;;;;;10.00;99.90;;;;;;1826398;76;20279;-71
2021/10/24 09:36:11;;;;;;;;;;;10.00;99.90;;;;;;1825203;76;20207;-71
2021/10/24 09:38:42;;;;;;;;;;;10.20;99.90;;;;;;1826152;76;20445;-72
2021/10/24 09:41:09;;;;;;;;;;;10.20;99.90;;;;;;1829628;76;20460;-71
2021/10/24 09:43:36;;;;;;;;;;;10.40;99.90;;;;;;1827230;76;20176;-71
2021/10/24 09:46:05;;;;;;;;;;;10.40;99.90;;;;;;1827654;76;20126;-71
2021/10/24 09:48:33;;;;;;;;;;;10.40;99.90;;;;;;1827631;76;20296;-71
2021/10/24 09:51:03;;;;;;;;;;;10.40;99.90;;;;;;1836506;76;20260;-71
2021/10/24 09:53:35;;;;;;;;;;;10.50;99.90;;;;;;1831954;76;20253;-71
2021/10/24 09:56:03;;;;;;;;;;;10.60;99.90;;;;;;1828618;76;20172;-71
2021/10/24 09:58:31;;;;;;;;;;;10.60;99.90;;;;;;1829261;76;20233;-71
2021/10/24 10:00:58;;;;;;;;;;;10.70;99.90;;;;;;1824264;76;20253;-72
2021/10/24 10:03:25;;;;;;;;;;;10.80;99.90;;;;;;1825426;76;20247;-71
2021/10/24 10:05:52;;;;;;;;;;;10.90;99.90;;;;;;1829737;76;20211;-71
2021/10/24 10:08:19;;;;;;;;;;;11.00;99.90;;;;;;1831543;76;20129;-71
2021/10/24 10:10:56;;;;;;;;;;;11.10;99.90;;;;;;1829506;76;20196;-73
2021/10/24 10:13:25;;;;;;;;;;;11.10;99.90;;;;;;1810861;76;20176;-70
2021/10/24 10:15:53;;;;;;;;;;;11.20;99.90;;;;;;1832130;76;20388;-70
2021/10/24 10:18:20;;;;;;;;;;;11.20;99.90;;;;;;1830184;76;20286;-71
2021/10/24 10:20:48;;;;;;;;;;;11.30;99.90;;;;;;1831381;76;20127;-71
2021/10/24 10:23:16;;;;;;;;;;;11.30;99.90;;;;;;1832013;76;20117;-71
2021/10/24 10:25:44;;;;;;;;;;;11.40;99.90;;;;;;1828223;76;20235;-71
2021/10/24 10:28:15;;;;;;;;;;;11.40;99.90;;;;;;1824732;76;20203;-71
2021/10/24 10:30:44;;;;;;;;;;;11.30;99.90;;;;;;1835803;76;20212;-71
2021/10/24 10:33:29;;;;;;;;;;;11.30;99.90;;;;;;1830858;78;20235;-71
2021/10/24 10:35:57;;;;;;;;;;;11.40;99.90;;;;;;1834047;78;20221;-71
2021/10/24 10:38:31;;;;;;;;;;;11.40;99.90;;;;;;1828406;78;20503;-70
2021/10/24 10:40:58;;;;;;;;;;;11.50;99.90;;;;;;1831078;76;20473;-70
2021/10/24 10:43:24;;;;;;;;;;;11.50;99.90;;;;;;1832820;76;20171;-70
2021/10/24 10:45:58;;;;;;;;;;;11.70;99.90;;;;;;1832244;76;20219;-70
2021/10/24 10:48:30;;;;;;;;;;;11.70;99.90;;;;;;1829237;76;20185;-72
2021/10/24 10:50:58;;;;;;;;;;;11.70;99.90;;;;;;1832637;76;20846;-70
2021/10/24 10:53:26;;;;;;;;;;;11.80;99.90;;;;;;1831889;76;20193;-71
2021/10/24 10:55:57;;;;;;;;;;;12.00;99.90;;;;;;1831547;76;20180;-71
2021/10/24 10:58:34;;;;;;;;;;;12.10;99.90;;;;;;1833523;76;20204;-72
2021/10/24 11:01:01;;;;;;;;;;;12.20;99.90;;;;;;1828937;76;20238;-73
2021/10/24 11:03:47;;;;;;;;;;;12.30;99.90;;;;;;1829753;78;20234;-73
2021/10/24 11:06:27;;;;;;;;;;;12.30;99.90;;;;;;1922527;74;20193;-73
2021/10/24 11:09:01;;;;;;;;;;;12.50;99.90;;;;;;1971435;72;20212;-70
2021/10/24 11:11:40;;;;;;;;;;;12.70;99.90;;;;;;1971018;72;20476;-72
2021/10/24 11:14:14;;;;;;;;;;;12.80;99.90;;;;;;1978316;71;20189;-73
2021/10/24 11:16:48;;;;;;;;;;;12.90;99.90;;;;;;1948736;73;20425;-72
2021/10/24 11:19:38;;;;;;;;;;;13.10;99.90;;;;;;1983699;71;20296;-73
2021/10/24 11:22:06;;;;;;;;;;;13.20;99.90;;;;;;1950778;73;20177;-72
2021/10/24 11:24:35;;;;;;;;;;;13.30;99.90;;;;;;1988345;71;20159;-73
2021/10/24 11:27:02;;;;;;;;;;;13.30;99.90;;;;;;1948833;73;20189;-72
2021/10/24 11:29:30;;;;;;;;;;;13.30;99.90;;;;;;1987747;71;20515;-72
2021/10/24 11:32:15;;;;;;;;;;;13.40;99.90;;;;;;1950376;73;20394;-72
2021/10/24 11:34:42;;;;;;;;;;;13.50;99.90;;;;;;1981824;71;20154;-72
2021/10/24 11:37:09;;;;;;;;;;;13.50;99.90;;;;;;1982836;71;20126;-72
2021/10/24 11:39:36;;;;;;;;;;;13.70;99.90;;;;;;1953351;73;20213;-73
2021/10/24 11:42:16;;;;;;;;;;;13.80;99.90;;;;;;1982370;71;20108;-72
2021/10/24 11:44:44;;;;;;;;;;;13.80;99.90;;;;;;1947826;73;20242;-72
2021/10/24 11:47:12;;;;;;;;;;;13.80;99.90;;;;;;1947871;73;20162;-71
2021/10/24 11:49:46;;;;;;;;;;;13.90;99.90;;;;;;1991164;71;20171;-73
2021/10/24 11:52:26;;;;;;;;;;;14.10;99.90;;;;;;1943285;73;20101;-73
2021/10/24 11:55:00;;;;;;;;;;;14.00;99.90;;;;;;1986832;71;20202;-72
2021/10/24 11:57:45;;;;;;;;;;;14.20;99.90;;;;;;1942510;73;20164;-73
2021/10/24 12:00:23;;;;;;;;;;;14.30;99.90;;;;;;1942367;73;20136;-71
2021/10/24 12:02:28;;;;;;;;;;;14.40;99.90;;;;;;1978073;71;20116;-72
2021/10/24 12:04:54;;;;;;;;;;;14.40;99.90;;;;;;1948834;73;20162;-73
2021/10/24 12:07:21;;;;;;;;;;;14.40;99.90;;;;;;1981138;71;20211;-72
2021/10/24 12:09:51;;;;;;;;;;;14.40;99.90;;;;;;1954796;73;20185;-70
2021/10/24 12:12:28;;;;;;;;;;;14.50;99.90;;;;;;1985710;71;20167;-70
2021/10/24 12:15:04;;;;;;;;;;;14.40;99.90;;;;;;1952447;73;21020;-73
2021/10/24 12:17:34;;;;;;;;;;;14.50;99.90;;;;;;1928747;74;20201;-75
2021/10/24 12:20:21;;;;;;;;;;;14.70;99.90;;;;;;1986229;71;20284;-71
2021/10/24 12:22:49;;;;;;;;;;;14.80;99.90;;;;;;1954282;73;20152;-71
2021/10/24 12:25:19;;;;;;;;;;;14.70;99.90;;;;;;1978003;71;20395;-71
2021/10/24 12:27:47;;;;;;;;;;;14.90;99.90;;;;;;1950479;73;20208;-71
2021/10/24 12:30:15;;;;;;;;;;;14.90;99.90;;;;;;1948472;73;20239;-69
2021/10/24 12:33:04;;;;;;;;;;;15.00;99.90;;;;;;1981606;71;20218;-71
2021/10/24 12:35:30;;;;;;;;;;;15.10;99.90;;;;;;1946873;73;20203;-70
2021/10/24 12:38:03;;;;;;;;;;;15.20;99.90;;;;;;1949775;73;20253;-70
2021/10/24 12:40:31;;;;;;;;;;;15.30;99.90;;;;;;1945763;73;20198;-70
2021/10/24 12:43:02;;;;;;;;;;;15.30;99.90;;;;;;1985316;71;20119;-70
2021/10/24 12:45:30;;;;;;;;;;;15.40;99.90;;;;;;1982407;71;20195;-70
2021/10/24 12:47:57;;;;;;;;;;;15.40;99.90;;;;;;1955490;73;20258;-70
2021/10/24 12:50:31;;;;;;;;;;;15.50;99.90;;;;;;1980214;71;20678;-71
2021/10/24 12:52:59;;;;;;;;;;;15.50;99.90;;;;;;1943224;73;20213;-72
2021/10/24 12:55:26;;;;;;;;;;;15.70;99.90;;;;;;1975120;71;20169;-71
2021/10/24 12:57:52;;;;;;;;;;;15.80;99.90;;;;;;1950357;73;20210;-71
2021/10/24 13:00:19;;;;;;;;;;;15.60;99.90;;;;;;1981860;71;20629;-71
2021/10/24 13:02:46;;;;;;;;;;;15.80;99.90;;;;;;1949381;73;20167;-71
2021/10/24 13:05:13;;;;;;;;;;;15.80;99.90;;;;;;1978878;71;20111;-71
2021/10/24 13:07:40;;;;;;;;;;;15.90;99.90;;;;;;1944199;73;20575;-72
2021/10/24 13:10:06;;;;;;;;;;;15.70;99.90;;;;;;1978267;71;20227;-72
2021/10/24 13:12:33;;;;;;;;;;;15.80;99.90;;;;;;1948962;73;20356;-71
2021/10/24 13:15:00;;;;;;;;;;;15.90;99.90;;;;;;1945152;73;20448;-72
2021/10/24 13:17:27;;;;;;;;;;;15.80;99.90;;;;;;1975777;71;20192;-72
2021/10/24 13:19:56;;;;;;;;;;;15.70;99.90;;;;;;1945229;72;20198;-72
2021/10/24 13:25:07;;;;;;;;;;;15.70;99.90;;;;;;1953286;73;20122;-72
2021/10/24 13:27:34;;;;;;;;;;;15.60;99.90;;;;;;1978789;71;20507;-72
2021/10/24 13:30:01;;;;;;;;;;;15.60;99.90;;;;;;1949156;73;20158;-72
2021/10/24 13:32:28;;;;;;;;;;;15.50;99.90;;;;;;1980859;71;20407;-72
2021/10/24 13:34:55;;;;;;;;;;;15.40;99.90;;;;;;1947543;71;20219;-72
2021/10/24 13:37:22;;;;;;;;;;;15.30;99.90;;;;;;1981126;71;20205;-72
2021/10/24 13:39:49;;;;;;;;;;;15.20;99.90;;;;;;1947251;73;20270;-72
2021/10/24 13:42:17;;;;;;;;;;;15.20;99.90;;;;;;1978084;71;20240;-72
2021/10/24 13:44:44;;;;;;;;;;;15.10;99.90;;;;;;1945508;71;20216;-71
2021/10/24 13:47:10;;;;;;;;;;;14.90;99.90;;;;;;1982593;71;20266;-71
2021/10/24 13:49:37;;;;;;;;;;;14.80;99.90;;;;;;1952394;73;20160;-71
2021/10/24 13:52:04;;;;;;;;;;;14.70;99.90;;;;;;1986897;71;20120;-72
2021/10/24 13:54:31;;;;;;;;;;;14.70;99.90;;;;;;1950892;73;20159;-71
2021/10/24 13:56:58;;;;;;;;;;;14.70;99.90;;;;;;1986851;71;20162;-71
2021/10/24 13:59:25;;;;;;;;;;;14.60;99.90;;;;;;1951123;73;20242;-72
2021/10/24 14:01:51;;;;;;;;;;;14.60;99.90;;;;;;1984516;71;20166;-72
2021/10/24 14:04:18;;;;;;;;;;;14.30;99.90;;;;;;1945476;71;20122;-72
2021/10/24 14:06:45;;;;;;;;;;;14.20;99.90;;;;;;1978019;71;20417;-72
2021/10/24 14:09:12;;;;;;;;;;;14.20;99.90;;;;;;1980054;71;20110;-72
2021/10/24 14:11:39;;;;;;;;;;;14.30;99.90;;;;;;1951156;73;20161;-72
2021/10/24 14:14:06;;;;;;;;;;;14.40;99.90;;;;;;1977365;71;20205;-71
2021/10/24 14:16:33;;;;;;;;;;;14.30;99.90;;;;;;1947701;73;20126;-72
2021/10/24 14:19:00;;;;;;;;;;;14.10;99.90;;;;;;1983696;71;20181;-71
2021/10/24 14:21:27;;;;;;;;;;;14.00;99.90;;;;;;1941143;73;20235;-71
2021/10/24 14:23:53;;;;;;;;;;;14.00;99.90;;;;;;1981525;71;20517;-72
2021/10/24 14:26:20;;;;;;;;;;;13.90;99.90;;;;;;1945168;73;20197;-72
2021/10/24 14:28:47;;;;;;;;;;;13.80;99.90;;;;;;1977019;71;20105;-72
2021/10/24 14:31:14;;;;;;;;;;;13.70;99.90;;;;;;1944183;73;20179;-72
2021/10/24 14:33:40;;;;;;;;;;;13.70;99.90;;;;;;1978259;71;20162;-72